Time;durP1;ratioP1;P1;durP2;ratioP2;P2;SDS_P1;SDS_P2;PMS_P1;PMS_P2;Temp;Humidity;BMP_temperature;BMP_pressure;BME280_temperature;BME280_humidity;BME280_pressure;Samples;Min_cycle;Max_cycle;Signal;HPM_P1;HPM_P2
2021/06/13 00:01:51;;;;;;;8.80;5.10;;;18.40;57.90;;;;;;5114969;28;20443;-73
2021/06/13 00:04:18;;;;;;;6.10;4.90;;;18.40;58.00;;;;;;5114854;28;20463;-74
2021/06/13 00:06:44;;;;;;;5.77;5.10;;;18.30;57.90;;;;;;5114881;28;20453;-74
2021/06/13 00:09:10;;;;;;;7.33;5.93;;;18.30;57.90;;;;;;5114810;28;20487;-74
2021/06/13 00:11:36;;;;;;;6.40;5.37;;;18.30;58.10;;;;;;5114792;28;20457;-74
2021/06/13 00:14:04;;;;;;;8.23;5.27;;;18.20;58.10;;;;;;5114604;28;20559;-74
2021/06/13 00:16:32;;;;;;;5.53;5.03;;;18.20;58.20;;;;;;5114448;28;20940;-74
2021/06/13 00:18:58;;;;;;;12.03;5.50;;;18.20;58.50;;;;;;5114639;28;20519;-74
2021/06/13 00:21:24;;;;;;;7.60;6.03;;;18.10;58.60;;;;;;5114591;28;20447;-74
2021/06/13 00:23:51;;;;;;;8.00;5.40;;;18.10;58.80;;;;;;5114524;28;20455;-74
2021/06/13 00:26:18;;;;;;;6.83;5.73;;;18.00;58.60;;;;;;5114509;28;20443;-74
2021/06/13 00:28:44;;;;;;;6.17;5.30;;;18.00;58.90;;;;;;5114451;28;20474;-74
2021/06/13 00:31:10;;;;;;;10.50;7.00;;;17.90;59.00;;;;;;5114487;28;20438;-74
2021/06/13 00:33:38;;;;;;;5.77;4.90;;;17.90;59.10;;;;;;5114263;28;20475;-74
2021/06/13 00:36:05;;;;;;;9.53;5.60;;;17.80;59.20;;;;;;5114318;28;20438;-74
2021/06/13 00:38:31;;;;;;;6.80;5.73;;;17.80;59.20;;;;;;5114316;28;20453;-74
2021/06/13 00:40:57;;;;;;;6.90;5.70;;;17.80;59.30;;;;;;5114279;28;20450;-74
2021/06/13 00:43:24;;;;;;;7.00;5.10;;;17.80;59.30;;;;;;5114166;28;20451;-74
2021/06/13 00:45:50;;;;;;;8.90;5.43;;;17.70;59.40;;;;;;5114189;28;20450;-74
2021/06/13 00:48:16;;;;;;;6.17;5.53;;;17.70;59.50;;;;;;5114130;28;20445;-74
2021/06/13 00:50:47;;;;;;;5.43;4.90;;;17.70;59.50;;;;;;5113839;28;20500;-74
2021/06/13 00:53:13;;;;;;;6.10;5.50;;;17.70;59.60;;;;;;5113183;28;20528;-74
2021/06/13 00:55:41;;;;;;;7.00;5.10;;;17.60;59.60;;;;;;5114061;28;20454;-74
2021/06/13 00:58:08;;;;;;;5.73;5.13;;;17.60;59.60;;;;;;5113731;28;20439;-76
2021/06/13 01:00:36;;;;;;;6.73;5.93;;;17.50;59.60;;;;;;5113984;28;20446;-74
2021/06/13 01:03:03;;;;;;;12.53;5.63;;;17.50;59.60;;;;;;5113971;28;20435;-74
2021/06/13 01:05:29;;;;;;;5.80;5.00;;;17.40;59.60;;;;;;5113571;28;20467;-75
2021/06/13 01:08:11;;;;;;;5.93;5.30;;;17.40;59.70;;;;;;5113939;28;20482;-75
2021/06/13 01:10:48;;;;;;;7.03;5.43;;;17.40;59.80;;;;;;5113633;28;20435;-75
2021/06/13 01:13:18;;;;;;;6.60;5.97;;;17.40;59.80;;;;;;5113808;28;20459;-74
2021/06/13 01:15:52;;;;;;;6.20;5.70;;;17.30;59.80;;;;;;5113898;28;20449;-75
2021/06/13 01:18:26;;;;;;;5.50;4.77;;;17.30;59.80;;;;;;5113669;28;20503;-74
2021/06/13 01:20:59;;;;;;;10.33;5.30;;;17.20;59.70;;;;;;5113815;28;20799;-74
2021/06/13 01:23:49;;;;;;;4.90;4.50;;;17.20;59.90;;;;;;5113800;28;20483;-74
2021/06/13 01:26:47;;;;;;;7.33;5.60;;;17.20;60.10;;;;;;5113807;28;20427;-74
2021/06/13 01:29:19;;;;;;;5.40;4.90;;;17.10;60.00;;;;;;5113450;28;20897;-74
2021/06/13 01:31:48;;;;;;;11.73;5.90;;;17.10;60.10;;;;;;5113525;28;20465;-74
2021/06/13 01:34:18;;;;;;;6.83;5.80;;;17.00;60.20;;;;;;5113636;28;20482;-74
2021/06/13 01:36:47;;;;;;;9.87;5.63;;;17.00;60.50;;;;;;5114566;28;20435;-75
2021/06/13 01:39:18;;;;;;;10.63;5.60;;;16.90;60.50;;;;;;5113735;28;20821;-74
2021/06/13 01:41:47;;;;;;;7.30;6.07;;;16.90;60.90;;;;;;5113798;28;20427;-74
2021/06/13 01:44:17;;;;;;;7.50;5.10;;;16.90;60.50;;;;;;5113645;28;20494;-74
2021/06/13 01:46:45;;;;;;;5.90;5.37;;;16.80;60.50;;;;;;5113716;28;20435;-75
2021/06/13 01:49:12;;;;;;;5.53;4.93;;;16.80;60.70;;;;;;5113296;28;20928;-75
2021/06/13 01:51:39;;;;;;;9.03;6.50;;;16.70;60.60;;;;;;5113633;28;20443;-74
2021/06/13 01:54:06;;;;;;;6.97;5.60;;;16.70;60.90;;;;;;5113079;28;20516;-75
2021/06/13 01:56:36;;;;;;;6.47;5.87;;;16.70;61.10;;;;;;5113537;28;20459;-74
2021/06/13 01:59:03;;;;;;;7.70;5.67;;;16.70;61.10;;;;;;5113607;28;20442;-75
2021/06/13 02:01:32;;;;;;;8.07;5.97;;;16.70;61.20;;;;;;5113534;28;20468;-75
2021/06/13 02:04:01;;;;;;;6.70;5.90;;;16.70;61.20;;;;;;5113449;28;20596;-75
2021/06/13 02:06:30;;;;;;;8.70;6.53;;;16.70;61.50;;;;;;5115423;28;21017;-74
2021/06/13 02:08:57;;;;;;;7.67;6.53;;;16.70;61.60;;;;;;5117294;28;20546;-75
2021/06/13 02:11:26;;;;;;;7.40;6.60;;;16.70;61.90;;;;;;5117132;28;20447;-75
2021/06/13 02:13:53;;;;;;;9.60;6.17;;;16.60;62.10;;;;;;5116961;28;20482;-75
2021/06/13 02:16:21;;;;;;;7.20;5.77;;;16.60;62.20;;;;;;5117117;28;20442;-75
2021/06/13 02:18:49;;;;;;;7.53;6.00;;;16.60;62.20;;;;;;5117017;28;20476;-73
2021/06/13 02:21:18;;;;;;;10.37;7.07;;;16.50;62.00;;;;;;5117069;28;20445;-74
2021/06/13 02:23:44;;;;;;;6.80;6.10;;;16.50;61.80;;;;;;5117033;28;20504;-74
2021/06/13 02:26:13;;;;;;;10.93;6.30;;;16.50;61.70;;;;;;5117134;28;20447;-74
2021/06/13 02:28:41;;;;;;;6.60;5.90;;;16.40;61.50;;;;;;5116837;28;20480;-74
2021/06/13 02:31:08;;;;;;;6.80;5.67;;;16.40;61.60;;;;;;5116833;28;20450;-74
2021/06/13 02:33:39;;;;;;;10.47;6.30;;;16.40;61.70;;;;;;5116593;28;20526;-74
2021/06/13 02:36:07;;;;;;;6.77;6.13;;;16.30;61.70;;;;;;5116820;28;20427;-73
2021/06/13 02:38:33;;;;;;;7.60;6.10;;;16.30;61.80;;;;;;5116351;28;20933;-75
2021/06/13 02:41:00;;;;;;;7.03;5.87;;;16.20;61.90;;;;;;5116595;28;20491;-75
2021/06/13 02:43:26;;;;;;;9.93;5.90;;;16.20;62.10;;;;;;5116548;28;20442;-74
2021/06/13 02:45:53;;;;;;;8.40;6.50;;;16.20;62.30;;;;;;5116453;28;20450;-74
2021/06/13 02:48:20;;;;;;;13.97;6.60;;;16.10;62.10;;;;;;5116152;28;20940;-74
2021/06/13 02:50:47;;;;;;;7.33;5.60;;;16.10;62.30;;;;;;5116080;28;20948;-73
2021/06/13 02:53:20;;;;;;;6.60;5.90;;;16.10;62.20;;;;;;5115944;28;20475;-73
2021/06/13 02:55:55;;;;;;;7.67;6.53;;;16.10;62.30;;;;;;5116301;28;20427;-74
2021/06/13 02:58:31;;;;;;;7.37;6.40;;;16.00;62.50;;;;;;5116291;28;20423;-73
2021/06/13 03:00:58;;;;;;;6.60;6.00;;;16.00;62.60;;;;;;5116216;28;20432;-73
2021/06/13 03:03:27;;;;;;;6.33;5.00;;;16.00;62.70;;;;;;5115753;28;20857;-75
2021/06/13 03:05:54;;;;;;;6.43;5.83;;;16.00;62.80;;;;;;5116075;28;20447;-75
2021/06/13 03:08:22;;;;;;;6.37;5.43;;;15.90;62.80;;;;;;5116056;28;20439;-75
2021/06/13 03:10:52;;;;;;;6.73;5.93;;;15.90;62.70;;;;;;5115973;28;20447;-75
2021/06/13 03:13:20;;;;;;;10.30;7.40;;;15.90;62.90;;;;;;5115815;28;20474;-75
2021/06/13 03:15:47;;;;;;;7.87;6.00;;;15.80;63.00;;;;;;5115895;28;20439;-75
2021/06/13 03:18:15;;;;;;;7.03;6.20;;;15.80;63.10;;;;;;5115583;28;20500;-75
2021/06/13 03:20:41;;;;;;;8.50;6.00;;;15.80;63.30;;;;;;5115799;28;20443;-74
2021/06/13 03:23:08;;;;;;;7.33;6.40;;;15.80;63.40;;;;;;5115757;28;20431;-74
2021/06/13 03:25:36;;;;;;;7.20;6.50;;;15.80;63.60;;;;;;5115594;28;20470;-75
2021/06/13 03:28:03;;;;;;;6.60;5.90;;;15.80;63.80;;;;;;5115646;28;20454;-75
2021/06/13 03:30:30;;;;;;;7.73;6.57;;;15.70;63.70;;;;;;5115607;28;20458;-75
2021/06/13 03:32:57;;;;;;;7.63;6.47;;;15.70;63.90;;;;;;5115175;28;20527;-75
2021/06/13 03:35:24;;;;;;;7.93;6.30;;;15.70;64.20;;;;;;5115135;28;20459;-75
2021/06/13 03:37:51;;;;;;;9.90;5.40;;;15.70;64.10;;;;;;5115510;28;20447;-75
2021/06/13 03:40:20;;;;;;;8.73;5.77;;;15.60;64.10;;;;;;5115410;28;20443;-75
2021/06/13 03:42:48;;;;;;;10.60;6.17;;;15.60;64.10;;;;;;5115431;28;20453;-75
2021/06/13 03:45:15;;;;;;;6.60;6.00;;;15.60;64.00;;;;;;5115000;28;20459;-75
2021/06/13 03:47:43;;;;;;;8.37;6.27;;;15.60;64.20;;;;;;5115284;28;20443;-75
2021/06/13 03:50:11;;;;;;;7.50;6.37;;;15.60;64.40;;;;;;5115258;28;20804;-75
2021/06/13 03:52:39;;;;;;;10.80;6.70;;;15.60;64.50;;;;;;5114954;28;20494;-75
2021/06/13 03:55:07;;;;;;;6.90;5.33;;;15.60;65.40;;;;;;5115066;28;20557;-74
2021/06/13 03:57:34;;;;;;;12.43;7.27;;;15.60;64.70;;;;;;5115063;28;20516;-74
2021/06/13 04:00:04;;;;;;;7.00;6.30;;;15.60;64.70;;;;;;5115044;28;20439;-74
2021/06/13 04:02:32;;;;;;;10.30;6.40;;;15.60;65.00;;;;;;5115255;28;20461;-75
2021/06/13 04:05:01;;;;;;;7.10;6.33;;;15.60;65.30;;;;;;5114904;28;20485;-74
2021/06/13 04:07:28;;;;;;;11.13;6.67;;;15.60;65.60;;;;;;5114944;28;20434;-75
2021/06/13 04:09:55;;;;;;;10.80;7.57;;;15.60;65.90;;;;;;5114803;28;20525;-73
2021/06/13 04:12:24;;;;;;;9.03;6.50;;;15.50;65.80;;;;;;5114846;28;20449;-74
2021/06/13 04:14:53;;;;;;;8.40;6.83;;;15.60;65.90;;;;;;5114681;28;20483;-74
2021/06/13 04:17:23;;;;;;;8.37;6.33;;;15.50;65.90;;;;;;5114728;28;20793;-74
2021/06/13 04:19:50;;;;;;;7.63;6.40;;;15.50;66.20;;;;;;5114452;28;20985;-75
2021/06/13 04:22:19;;;;;;;8.50;5.97;;;15.50;66.10;;;;;;5114291;28;20447;-75
2021/06/13 04:24:48;;;;;;;8.27;5.37;;;15.50;66.50;;;;;;5114227;28;20458;-75
2021/06/13 04:27:18;;;;;;;7.10;5.60;;;15.50;66.60;;;;;;5114457;28;20446;-75
2021/06/13 04:29:45;;;;;;;10.60;5.73;;;15.50;66.70;;;;;;5113881;28;20434;-75
2021/06/13 04:32:11;;;;;;;10.20;7.00;;;15.50;66.80;;;;;;5115322;28;20427;-75
2021/06/13 04:34:40;;;;;;;11.70;7.00;;;15.50;67.00;;;;;;5114213;28;20493;-75
2021/06/13 04:37:08;;;;;;;8.40;7.60;;;15.50;67.40;;;;;;5114385;28;20458;-75
2021/06/13 04:39:36;;;;;;;11.00;7.53;;;15.60;68.50;;;;;;5114046;28;21061;-74
2021/06/13 04:42:05;;;;;;;15.23;8.63;;;15.60;67.90;;;;;;5114384;28;20854;-74
2021/06/13 04:44:32;;;;;;;14.20;9.37;;;15.60;68.40;;;;;;5114301;28;20467;-74
2021/06/13 04:46:58;;;;;;;14.77;10.00;;;15.60;68.90;;;;;;5114271;28;20431;-74
2021/06/13 04:49:25;;;;;;;9.73;8.83;;;15.70;69.20;;;;;;5114192;28;20447;-74
2021/06/13 04:51:56;;;;;;;15.90;10.83;;;15.70;69.60;;;;;;5114160;28;20461;-74
2021/06/13 04:54:44;;;;;;;12.23;8.90;;;15.70;70.10;;;;;;5113761;28;20553;-74
2021/06/13 04:57:23;;;;;;;13.57;9.20;;;15.70;70.70;;;;;;5114164;28;20423;-74
2021/06/13 04:59:49;;;;;;;12.80;9.30;;;15.70;71.10;;;;;;5114093;28;20431;-74
2021/06/13 05:02:16;;;;;;;13.23;10.07;;;15.70;71.40;;;;;;5113693;28;20932;-74
2021/06/13 05:04:43;;;;;;;14.03;10.10;;;15.70;71.70;;;;;;5113894;28;20466;-74
2021/06/13 05:07:11;;;;;;;13.50;11.10;;;15.80;71.70;;;;;;5114005;28;20446;-74
2021/06/13 05:09:38;;;;;;;17.77;10.83;;;15.80;71.50;;;;;;5113998;28;20439;-74
2021/06/13 05:12:06;;;;;;;16.27;10.60;;;15.80;72.10;;;;;;5114756;28;20446;-74
2021/06/13 05:14:32;;;;;;;14.37;10.10;;;15.70;72.70;;;;;;5113769;28;20489;-75
2021/06/13 05:16:59;;;;;;;13.83;10.97;;;15.70;73.50;;;;;;5113957;28;20435;-75
2021/06/13 05:19:26;;;;;;;13.83;11.10;;;15.70;73.90;;;;;;5113826;28;20443;-73
2021/06/13 05:21:52;;;;;;;26.20;12.40;;;15.60;74.60;;;;;;5113799;28;20450;-75
2021/06/13 05:24:21;;;;;;;18.00;11.70;;;15.60;74.90;;;;;;5113778;28;20455;-73
2021/06/13 05:26:47;;;;;;;18.70;11.43;;;15.70;75.00;;;;;;5113458;28;20438;-74
2021/06/13 05:29:14;;;;;;;16.20;11.13;;;15.70;75.30;;;;;;5113827;28;20427;-74
2021/06/13 05:31:41;;;;;;;15.53;10.97;;;15.70;75.70;;;;;;5113684;28;20447;-74
2021/06/13 05:34:07;;;;;;;16.03;10.50;;;15.70;76.00;;;;;;5113604;28;20859;-74
2021/06/13 05:36:34;;;;;;;16.07;10.90;;;15.80;76.30;;;;;;5113700;28;20450;-74
2021/06/13 05:39:01;;;;;;;13.83;9.73;;;15.90;76.10;;;;;;5113750;28;20446;-74
2021/06/13 05:41:29;;;;;;;14.40;10.67;;;15.90;75.40;;;;;;5117663;28;20449;-74
2021/06/13 05:43:56;;;;;;;18.80;11.33;;;16.00;75.40;;;;;;5117666;28;20557;-74
2021/06/13 05:46:24;;;;;;;15.60;10.73;;;16.10;75.30;;;;;;5117650;28;20447;-74
2021/06/13 05:48:50;;;;;;;17.80;11.00;;;16.20;75.10;;;;;;5117659;28;20439;-74
2021/06/13 05:51:17;;;;;;;17.50;10.93;;;16.30;74.50;;;;;;5117293;28;20443;-74
2021/06/13 05:53:44;;;;;;;14.00;9.70;;;16.50;74.70;;;;;;5117085;28;20486;-74
2021/06/13 05:56:10;;;;;;;18.87;10.83;;;16.60;75.00;;;;;;5117547;28;20442;-74
2021/06/13 05:58:38;;;;;;;15.70;10.60;;;16.70;74.40;;;;;;5117534;28;20447;-74
2021/06/13 06:01:05;;;;;;;12.43;10.63;;;16.80;72.60;;;;;;5117127;28;20936;-74
2021/06/13 06:03:32;;;;;;;16.23;10.43;;;16.90;72.80;;;;;;5117277;28;20450;-73
2021/06/13 06:05:58;;;;;;;15.20;10.17;;;16.90;72.70;;;;;;5117312;28;20449;-74
2021/06/13 06:08:27;;;;;;;11.13;9.90;;;17.00;72.30;;;;;;5117277;28;20454;-74
2021/06/13 06:10:54;;;;;;;15.60;10.50;;;17.10;71.30;;;;;;5117378;28;20483;-74
2021/06/13 06:13:21;;;;;;;16.50;9.60;;;17.10;72.00;;;;;;5117124;28;20438;-74
2021/06/13 06:15:50;;;;;;;14.10;9.33;;;17.20;71.40;;;;;;5117275;28;20431;-76
2021/06/13 06:18:16;;;;;;;9.50;7.57;;;17.30;70.70;;;;;;5117085;28;20438;-75
2021/06/13 06:20:45;;;;;;;13.60;7.50;;;17.40;70.60;;;;;;5117219;28;20423;-74
2021/06/13 06:23:11;;;;;;;14.47;7.80;;;17.60;70.70;;;;;;5117107;28;20443;-75
2021/06/13 06:25:44;;;;;;;11.67;7.30;;;17.70;69.00;;;;;;5116669;28;20980;-74
2021/06/13 06:28:11;;;;;;;11.10;7.07;;;17.80;67.50;;;;;;5117113;28;20431;-73
2021/06/13 06:30:38;;;;;;;10.50;7.70;;;17.90;67.20;;;;;;5116667;28;20818;-75
2021/06/13 06:33:06;;;;;;;11.07;6.63;;;18.00;65.80;;;;;;5117022;28;20493;-75
2021/06/13 06:35:33;;;;;;;11.97;7.43;;;18.10;64.90;;;;;;5116487;28;20478;-74
2021/06/13 06:38:00;;;;;;;8.97;6.93;;;18.20;64.90;;;;;;5116746;28;20446;-74
2021/06/13 06:40:26;;;;;;;9.93;6.20;;;18.40;64.50;;;;;;5116782;28;20451;-74
2021/06/13 06:42:53;;;;;;;9.63;6.43;;;18.40;61.90;;;;;;5116464;28;20458;-74
2021/06/13 06:45:20;;;;;;;9.70;6.23;;;18.50;63.50;;;;;;5116451;28;20458;-74
2021/06/13 06:47:47;;;;;;;9.47;7.03;;;18.60;61.90;;;;;;5116521;28;20447;-74
2021/06/13 06:50:15;;;;;;;9.57;6.23;;;18.80;60.80;;;;;;5116605;28;20472;-74
2021/06/13 06:52:42;;;;;;;10.77;6.43;;;18.90;61.80;;;;;;5115600;28;20477;-74
2021/06/13 06:55:10;;;;;;;11.30;6.33;;;19.20;60.90;;;;;;5116208;28;20531;-74
2021/06/13 06:57:42;;;;;;;10.47;6.37;;;19.40;60.90;;;;;;5116274;28;20432;-74
2021/06/13 07:00:10;;;;;;;10.67;6.60;;;19.50;59.20;;;;;;5116325;28;20454;-74
2021/06/13 07:02:37;;;;;;;10.30;6.30;;;19.60;58.00;;;;;;5116260;28;20438;-74
2021/06/13 07:05:04;;;;;;;13.23;7.80;;;19.80;58.40;;;;;;5116065;28;20463;-74
2021/06/13 07:07:32;;;;;;;10.00;6.23;;;19.90;58.00;;;;;;5116096;28;20447;-74
2021/06/13 07:09:59;;;;;;;15.30;7.30;;;20.10;57.10;;;;;;5116038;28;20473;-74
2021/06/13 07:12:26;;;;;;;8.77;6.00;;;20.10;56.80;;;;;;5116046;28;20473;-74
2021/06/13 07:14:53;;;;;;;13.70;6.47;;;20.30;57.10;;;;;;5115877;28;20493;-75
2021/06/13 07:17:19;;;;;;;19.53;8.10;;;20.40;56.80;;;;;;5115921;28;20442;-74
2021/06/13 07:19:46;;;;;;;9.43;6.53;;;20.60;56.70;;;;;;5115619;28;20447;-74
2021/06/13 07:22:13;;;;;;;10.87;6.30;;;20.80;55.50;;;;;;5115886;28;20446;-74
2021/06/13 07:24:41;;;;;;;8.27;6.17;;;21.00;55.50;;;;;;5115727;28;20471;-74
2021/06/13 07:27:08;;;;;;;10.43;5.33;;;21.20;56.10;;;;;;5115701;28;20450;-74
2021/06/13 07:29:35;;;;;;;15.10;6.97;;;21.50;56.00;;;;;;5115705;28;20446;-74
2021/06/13 07:32:01;;;;;;;19.13;7.40;;;21.80;54.90;;;;;;5115801;28;20435;-74
2021/06/13 07:34:28;;;;;;;12.10;7.57;;;22.00;54.40;;;;;;5115505;28;20482;-74
2021/06/13 07:36:55;;;;;;;10.53;6.60;;;22.30;53.80;;;;;;5115540;28;20533;-74
2021/06/13 07:39:22;;;;;;;11.53;7.10;;;22.60;52.70;;;;;;5115568;28;20450;-74
2021/06/13 07:41:50;;;;;;;10.33;6.83;;;22.80;50.30;;;;;;5115179;28;20490;-74
2021/06/13 07:44:18;;;;;;;13.07;6.23;;;22.80;49.80;;;;;;5115047;28;20999;-74
2021/06/13 07:46:44;;;;;;;15.87;6.57;;;22.80;49.20;;;;;;5115361;28;20530;-74
2021/06/13 07:49:11;;;;;;;14.00;6.97;;;22.80;49.90;;;;;;5115356;28;20456;-74
2021/06/13 07:51:38;;;;;;;10.73;6.07;;;22.80;49.70;;;;;;5115218;28;20466;-74
2021/06/13 07:54:05;;;;;;;11.27;6.60;;;22.70;49.60;;;;;;5114591;28;20486;-74
2021/06/13 07:56:32;;;;;;;11.00;7.50;;;22.60;49.80;;;;;;5115165;28;20447;-74
2021/06/13 07:59:00;;;;;;;11.07;7.20;;;22.60;50.10;;;;;;5115723;28;20494;-74
2021/06/13 08:01:27;;;;;;;10.53;7.03;;;22.60;49.30;;;;;;5115084;28;20439;-74
2021/06/13 08:03:54;;;;;;;11.53;6.60;;;22.60;50.80;;;;;;5113953;28;20471;-74
2021/06/13 08:06:21;;;;;;;12.60;6.77;;;22.60;51.40;;;;;;5115059;28;20469;-74
2021/06/13 08:08:48;;;;;;;11.73;6.27;;;22.80;51.00;;;;;;5114847;28;20443;-74
2021/06/13 08:11:15;;;;;;;8.57;6.20;;;22.70;48.60;;;;;;5114990;28;20427;-74
2021/06/13 08:13:42;;;;;;;11.50;6.07;;;22.60;48.50;;;;;;5114474;28;20458;-74
2021/06/13 08:16:10;;;;;;;10.43;6.00;;;22.60;48.50;;;;;;5114722;28;20483;-74
2021/06/13 08:18:37;;;;;;;10.80;6.40;;;22.60;49.00;;;;;;5114363;28;20933;-74
2021/06/13 08:21:04;;;;;;;8.17;6.03;;;22.70;50.20;;;;;;5114721;28;20466;-75
2021/06/13 08:23:31;;;;;;;9.17;6.03;;;22.90;50.10;;;;;;5114597;28;20439;-75
2021/06/13 08:25:58;;;;;;;9.83;5.53;;;23.30;51.00;;;;;;5114606;28;20508;-74
2021/06/13 08:28:25;;;;;;;9.00;4.60;;;23.60;50.50;;;;;;5114662;28;20435;-74
2021/06/13 08:30:52;;;;;;;7.33;5.27;;;24.00;49.40;;;;;;5114499;28;20450;-75
2021/06/13 08:33:21;;;;;;;7.93;5.23;;;24.50;48.10;;;;;;5114372;28;20451;-75
2021/06/13 08:35:48;;;;;;;7.43;5.23;;;24.90;47.20;;;;;;5113992;28;21023;-73
2021/06/13 08:38:14;;;;;;;9.23;5.93;;;25.30;46.20;;;;;;5114416;28;20809;-73
2021/06/13 08:40:41;;;;;;;13.30;6.17;;;25.70;45.30;;;;;;5114239;28;20450;-73
2021/06/13 08:43:08;;;;;;;7.77;5.77;;;26.00;44.40;;;;;;5114217;28;20447;-74
2021/06/13 08:45:37;;;;;;;10.57;6.27;;;26.20;41.30;;;;;;5114157;28;20466;-73
2021/06/13 08:48:07;;;;;;;7.67;5.67;;;26.30;41.70;;;;;;5113960;28;20447;-73
2021/06/13 08:50:36;;;;;;;10.50;7.07;;;26.40;42.60;;;;;;5114203;28;20431;-73
2021/06/13 08:53:04;;;;;;;8.27;7.37;;;26.60;42.00;;;;;;5113957;28;20451;-74
2021/06/13 08:55:32;;;;;;;8.23;7.07;;;26.90;42.10;;;;;;5113981;28;20518;-74
2021/06/13 08:58:01;;;;;;;9.70;6.70;;;27.00;41.10;;;;;;5114144;28;20427;-74
2021/06/13 09:00:31;;;;;;;8.03;6.13;;;27.10;38.40;;;;;;5114081;28;20447;-74
2021/06/13 09:02:59;;;;;;;10.13;6.50;;;27.10;38.80;;;;;;5114293;28;20449;-74
2021/06/13 09:05:27;;;;;;;11.13;7.10;;;27.20;39.20;;;;;;5113596;28;20980;-74
2021/06/13 09:07:57;;;;;;;8.73;5.70;;;27.40;39.60;;;;;;5113684;28;20449;-73
2021/06/13 09:10:27;;;;;;;13.30;9.00;;;27.50;39.80;;;;;;5114048;28;20438;-73
2021/06/13 09:13:10;;;;;;;10.77;7.83;;;27.50;36.90;;;;;;5113961;28;20540;-73
2021/06/13 09:15:39;;;;;;;13.30;9.13;;;27.40;38.40;;;;;;5118727;28;20478;-73
2021/06/13 09:18:09;;;;;;;12.67;8.73;;;27.20;37.90;;;;;;5120486;28;20904;-73
2021/06/13 09:20:36;;;;;;;15.03;9.20;;;27.00;38.80;;;;;;5120737;28;20438;-74
2021/06/13 09:23:11;;;;;;;10.93;7.27;;;26.60;39.90;;;;;;5120742;28;20442;-74
2021/06/13 09:25:41;;;;;;;15.43;8.60;;;26.30;39.30;;;;;;5120646;28;20469;-74
2021/06/13 09:28:10;;;;;;;11.17;7.83;;;26.40;41.60;;;;;;5121215;28;20511;-74
2021/06/13 09:30:39;;;;;;;10.67;8.63;;;26.60;41.70;;;;;;5120751;28;20625;-75
2021/06/13 09:33:10;;;;;;;12.13;8.17;;;26.80;39.60;;;;;;5120046;28;20423;-74
2021/06/13 09:35:38;;;;;;;11.13;7.37;;;26.90;38.50;;;;;;5120738;28;20487;-75
2021/06/13 09:38:09;;;;;;;14.23;8.30;;;26.90;38.00;;;;;;5120735;28;20433;-75
2021/06/13 09:40:36;;;;;;;12.77;8.13;;;26.90;38.80;;;;;;5120607;28;20430;-73
2021/06/13 09:43:14;;;;;;;9.00;7.03;;;26.90;38.90;;;;;;5120520;28;20450;-73
2021/06/13 09:45:47;;;;;;;11.57;6.90;;;27.00;39.10;;;;;;5120626;28;20450;-73
2021/06/13 09:48:14;;;;;;;17.37;8.30;;;26.90;36.00;;;;;;5120159;28;20900;-73
2021/06/13 09:50:43;;;;;;;9.93;7.90;;;26.50;37.40;;;;;;5120530;28;20434;-73
2021/06/13 09:53:24;;;;;;;9.00;7.87;;;26.70;39.20;;;;;;5120288;28;20454;-73
2021/06/13 09:56:14;;;;;;;11.03;6.50;;;27.10;39.10;;;;;;5120069;28;20982;-73
2021/06/13 09:58:48;;;;;;;11.97;7.50;;;27.40;37.70;;;;;;5120160;28;20984;-74
2021/06/13 10:01:15;;;;;;;9.90;7.50;;;27.60;38.60;;;;;;5120442;28;20422;-74
2021/06/13 10:03:46;;;;;;;11.57;6.83;;;27.90;37.00;;;;;;5119927;28;20458;-74
2021/06/13 10:06:14;;;;;;;10.63;7.77;;;28.30;36.50;;;;;;5120364;28;20510;-73
2021/06/13 10:08:43;;;;;;;8.03;6.83;;;28.70;34.50;;;;;;5120669;28;20439;-74
2021/06/13 10:11:10;;;;;;;10.03;7.00;;;29.00;33.80;;;;;;5120167;28;20496;-74
2021/06/13 10:13:45;;;;;;;7.37;6.47;;;29.40;33.70;;;;;;5120056;28;20466;-73
2021/06/13 10:16:29;;;;;;;9.50;6.33;;;29.60;32.20;;;;;;5120090;28;20497;-73
2021/06/13 10:18:59;;;;;;;11.90;6.37;;;29.90;32.50;;;;;;5120291;28;20427;-73
2021/06/13 10:21:28;;;;;;;8.98;5.85;;;30.50;33.00;;;;;;5119291;28;20905;-73
2021/06/13 10:23:57;;;;;;;9.07;6.50;;;31.10;32.50;;;;;;5119925;28;20298;-73
2021/06/13 10:26:24;;;;;;;8.13;6.13;;;31.80;30.80;;;;;;5117789;28;20434;-74
2021/06/13 10:28:51;;;;;;;11.13;8.03;;;32.30;28.80;;;;;;5116814;28;20460;-74
2021/06/13 10:31:18;;;;;;;8.47;7.03;;;32.80;27.70;;;;;;5116966;28;20928;-74
2021/06/13 10:33:46;;;;;;;9.43;7.00;;;33.00;27.30;;;;;;5117035;28;20462;-74
2021/06/13 10:36:13;;;;;;;8.00;6.60;;;33.10;27.80;;;;;;5116982;28;21003;-73
2021/06/13 10:38:40;;;;;;;5.67;5.07;;;33.50;28.50;;;;;;5117181;28;20450;-74
2021/06/13 10:41:09;;;;;;;7.70;6.17;;;34.00;28.80;;;;;;5117482;28;20442;-73
2021/06/13 10:43:35;;;;;;;9.80;7.20;;;34.60;26.40;;;;;;5117803;28;20450;-73
2021/06/13 10:46:07;;;;;;;8.13;6.50;;;35.10;25.50;;;;;;5116731;28;20426;-74
2021/06/13 10:48:39;;;;;;;9.20;6.33;;;35.50;24.70;;;;;;5116624;28;20446;-74
2021/06/13 10:51:29;;;;;;;9.77;6.03;;;35.60;23.90;;;;;;5116803;28;20446;-74
2021/06/13 10:54:22;;;;;;;9.13;5.73;;;35.80;24.90;;;;;;5116216;28;20482;-73
2021/06/13 10:56:51;;;;;;;8.77;5.73;;;36.10;23.50;;;;;;5117591;28;20825;-73
2021/06/13 10:59:20;;;;;;;6.53;5.60;;;36.50;22.90;;;;;;5116805;28;20442;-74
2021/06/13 11:01:58;;;;;;;8.77;5.50;;;36.90;23.60;;;;;;5116387;28;20450;-73
2021/06/13 11:04:43;;;;;;;6.90;4.60;;;37.50;22.80;;;;;;5116465;28;20484;-73
2021/06/13 11:07:10;;;;;;;6.97;5.03;;;37.80;21.80;;;;;;5116795;28;20437;-73
2021/06/13 11:10:11;;;;;;;9.33;5.40;;;37.90;21.80;;;;;;5116568;28;20433;-73
2021/06/13 11:12:46;;;;;;;8.50;4.60;;;38.20;21.40;;;;;;5116531;28;20212;-73
2021/06/13 11:15:13;;;;;;;7.80;5.03;;;38.40;21.30;;;;;;5116047;28;20220;-74
2021/06/13 11:17:54;;;;;;;6.47;4.73;;;38.70;20.60;;;;;;5116295;28;20650;-74
2021/06/13 11:20:47;;;;;;;6.50;4.70;;;39.00;20.10;;;;;;5115826;28;20662;-74
2021/06/13 11:23:44;;;;;;;6.25;4.45;;;39.20;20.50;;;;;;5116256;28;20549;-75
2021/06/13 11:26:30;;;;;;;6.78;5.47;;;39.40;19.50;;;;;;5116045;28;20203;-76
2021/06/13 11:28:58;;;;;;;7.35;4.60;;;39.70;20.20;;;;;;5115976;28;20193;-75
2021/06/13 11:31:25;;;;;;;7.57;3.83;;;40.00;20.40;;;;;;5116444;28;20693;-74
2021/06/13 11:34:02;;;;;;;6.07;3.97;;;40.30;20.10;;;;;;5116245;28;20221;-74
2021/06/13 11:36:31;;;;;;;5.43;4.03;;;40.70;20.40;;;;;;5115952;28;20204;-75
2021/06/13 11:39:18;;;;;;;6.80;4.00;;;41.10;20.30;;;;;;5116141;28;20223;-75
2021/06/13 11:41:47;;;;;;;5.55;4.20;;;41.60;20.00;;;;;;5115643;28;20184;-75
2021/06/13 11:44:40;;;;;;;6.15;4.15;;;41.90;17.90;;;;;;5115554;28;20212;-75
2021/06/13 11:47:32;;;;;;;6.15;4.30;;;42.20;18.00;;;;;;5115484;28;20188;-74
2021/06/13 11:50:00;;;;;;;5.05;4.28;;;42.40;18.00;;;;;;5115557;28;20195;-73
2021/06/13 11:52:56;;;;;;;5.32;4.40;;;42.50;18.10;;;;;;5114943;28;20670;-75
2021/06/13 11:55:48;;;;;;;7.03;4.57;;;42.70;17.40;;;;;;5115187;28;20220;-74
2021/06/13 11:58:15;;;;;;;6.53;4.10;;;42.70;17.20;;;;;;5115272;28;20188;-75
2021/06/13 12:00:44;;;;;;;8.27;4.00;;;42.70;17.20;;;;;;5114937;28;20566;-74
2021/06/13 12:03:11;;;;;;;3.70;3.30;;;42.80;18.20;;;;;;5115214;28;20563;-74
2021/06/13 12:05:38;;;;;;;5.05;4.30;;;43.00;17.10;;;;;;5115036;28;20277;-74
2021/06/13 12:08:05;;;;;;;6.65;3.97;;;43.10;16.60;;;;;;5114670;28;20196;-74
2021/06/13 12:10:34;;;;;;;6.00;4.35;;;43.20;17.30;;;;;;5115053;28;20208;-74
2021/06/13 12:13:08;;;;;;;6.63;4.00;;;43.50;17.40;;;;;;5114677;28;20623;-74
2021/06/13 12:15:35;;;;;;;5.95;4.40;;;43.80;17.10;;;;;;5114700;28;20239;-74
2021/06/13 12:18:04;;;;;;;7.03;4.07;;;44.00;15.90;;;;;;5114851;28;20196;-75
2021/06/13 12:20:31;;;;;;;4.40;3.90;;;44.00;16.00;;;;;;5114801;28;20208;-75
2021/06/13 12:23:04;;;;;;;6.18;4.20;;;44.10;16.10;;;;;;5114723;28;20209;-75
2021/06/13 12:28:16;;;;;;;5.70;3.70;;;44.80;16.20;;;;;;5114815;28;20550;-74
2021/06/13 12:30:45;;;;;;;4.93;3.25;;;45.30;16.20;;;;;;5114601;28;20259;-73
2021/06/13 12:33:15;;;;;;;5.22;3.90;;;45.60;15.90;;;;;;5114333;28;20298;-74
2021/06/13 12:35:43;;;;;;;4.88;3.35;;;46.00;15.80;;;;;;5114431;28;20239;-75
2021/06/13 12:38:12;;;;;;;7.47;4.28;;;46.20;14.90;;;;;;5114665;28;20184;-74
2021/06/13 12:40:41;;;;;;;4.15;3.63;;;46.50;15.00;;;;;;5114417;28;20295;-75
2021/06/13 12:43:09;;;;;;;3.40;3.10;;;46.60;13.90;;;;;;5114460;28;20201;-74
2021/06/13 12:45:37;;;;;;;4.85;3.90;;;46.80;14.10;;;;;;5114267;28;20221;-74
2021/06/13 12:48:08;;;;;;;6.75;3.70;;;47.00;15.00;;;;;;5114405;28;20548;-75
2021/06/13 12:50:38;;;;;;;4.32;3.40;;;47.20;14.70;;;;;;5113747;28;20189;-74
2021/06/13 12:53:07;;;;;;;4.10;3.05;;;47.50;14.90;;;;;;5114146;28;20212;-74
2021/06/13 12:55:36;;;;;;;5.25;3.63;;;47.70;14.70;;;;;;5114024;28;20217;-75
2021/06/13 12:58:04;;;;;;;4.97;3.70;;;48.00;14.00;;;;;;5114255;28;20200;-76